sensor_id;sensor_type;location;lat;lon;timestamp;P1;durP1;ratioP1;P2;durP2;ratioP2
45867;SDS011;31582;45.490;7.860;2022-09-09T08:26:11;0.85;;;0.35;;
45867;SDS011;31582;45.490;7.860;2022-09-09T08:28:41;0.30;;;0.30;;
45867;SDS011;31582;45.490;7.860;2022-09-09T08:31:13;0.30;;;0.30;;
45867;SDS011;31582;45.490;7.860;2022-09-09T08:33:42;0.40;;;0.40;;
45867;SDS011;31582;45.490;7.860;2022-09-09T08:36:16;0.30;;;0.30;;
45867;SDS011;31582;45.490;7.860;2022-09-09T08:52:22;0.40;;;0.40;;
45867;SDS011;31582;45.490;7.860;2022-09-09T08:55:05;0.60;;;0.40;;
45867;SDS011;31582;45.490;7.860;2022-09-09T08:57:51;0.40;;;0.40;;
45867;SDS011;31582;45.490;7.860;2022-09-09T09:00:21;0.40;;;0.40;;
45867;SDS011;31582;45.490;7.860;2022-09-09T09:03:06;0.32;;;0.32;;
45867;SDS011;31582;45.490;7.860;2022-09-09T09:05:46;0.47;;;0.30;;
45867;SDS011;31582;45.490;7.860;2022-09-09T09:10:53;0.30;;;0.30;;
45867;SDS011;31582;45.490;7.860;2022-09-09T09:18:49;0.47;;;0.40;;
45867;SDS011;31582;45.490;7.860;2022-09-09T09:26:59;0.40;;;0.40;;
45867;SDS011;31582;45.490;7.860;2022-09-09T09:29:38;0.40;;;0.40;;
45867;SDS011;31582;45.490;7.860;2022-09-09T09:32:29;0.30;;;0.30;;
45867;SDS011;31582;45.490;7.860;2022-09-09T09:35:00;0.30;;;0.30;;
45867;SDS011;31582;45.490;7.860;2022-09-09T09:37:34;0.45;;;0.40;;
45867;SDS011;31582;45.490;7.860;2022-09-09T09:40:35;0.93;;;0.50;;
45867;SDS011;31582;45.490;7.860;2022-09-09T09:42:56;0.32;;;0.32;;
45867;SDS011;31582;45.490;7.860;2022-09-09T09:45:33;0.40;;;0.40;;
45867;SDS011;31582;45.490;7.860;2022-09-09T09:48:02;0.30;;;0.30;;
45867;SDS011;31582;45.490;7.860;2022-09-09T09:50:33;0.40;;;0.30;;
45867;SDS011;31582;45.490;7.860;2022-09-09T09:53:02;0.20;;;0.20;;
45867;SDS011;31582;45.490;7.860;2022-09-09T09:55:31;0.30;;;0.30;;
45867;SDS011;31582;45.490;7.860;2022-09-09T09:58:04;0.40;;;0.30;;
45867;SDS011;31582;45.490;7.860;2022-09-09T10:00:33;0.95;;;0.30;;
45867;SDS011;31582;45.490;7.860;2022-09-09T10:03:12;0.38;;;0.20;;
45867;SDS011;31582;45.490;7.860;2022-09-09T10:05:54;0.50;;;0.30;;
45867;SDS011;31582;45.490;7.860;2022-09-09T10:08:23;0.77;;;0.20;;
45867;SDS011;31582;45.490;7.860;2022-09-09T10:13:46;0.50;;;0.20;;
45867;SDS011;31582;45.490;7.860;2022-09-09T10:16:43;0.40;;;0.20;;
45867;SDS011;31582;45.490;7.860;2022-09-09T10:19:31;0.50;;;0.13;;
45867;SDS011;31582;45.490;7.860;2022-09-09T10:28:02;0.50;;;0.20;;
45867;SDS011;31582;45.490;7.860;2022-09-09T10:34:12;0.20;;;0.20;;
45867;SDS011;31582;45.490;7.860;2022-09-09T10:37:02;0.60;;;0.20;;
45867;SDS011;31582;45.490;7.860;2022-09-09T10:39:56;0.37;;;0.20;;
45867;SDS011;31582;45.490;7.860;2022-09-09T10:42:40;0.40;;;0.30;;
45867;SDS011;31582;45.490;7.860;2022-09-09T10:45:19;0.50;;;0.20;;
45867;SDS011;31582;45.490;7.860;2022-09-09T10:48:16;0.20;;;0.20;;
45867;SDS011;31582;45.490;7.860;2022-09-09T10:53:33;0.20;;;0.20;;
45867;SDS011;31582;45.490;7.860;2022-09-09T10:56:12;0.10;;;0.10;;
45867;SDS011;31582;45.490;7.860;2022-09-09T10:58:50;0.20;;;0.20;;
45867;SDS011;31582;45.490;7.860;2022-09-09T11:01:20;0.20;;;0.20;;
45867;SDS011;31582;45.490;7.860;2022-09-09T11:04:22;0.20;;;0.20;;
45867;SDS011;31582;45.490;7.860;2022-09-09T11:06:54;0.63;;;0.20;;
45867;SDS011;31582;45.490;7.860;2022-09-09T11:09:23;0.30;;;0.20;;
45867;SDS011;31582;45.490;7.860;2022-09-09T11:11:55;0.20;;;0.20;;
45867;SDS011;31582;45.490;7.860;2022-09-09T11:14:28;0.15;;;0.15;;
45867;SDS011;31582;45.490;7.860;2022-09-09T11:17:10;0.57;;;0.20;;
45867;SDS011;31582;45.490;7.860;2022-09-09T11:19:40;0.30;;;0.20;;
45867;SDS011;31582;45.490;7.860;2022-09-09T11:25:14;0.13;;;0.10;;
45867;SDS011;31582;45.490;7.860;2022-09-09T11:36:49;0.30;;;0.10;;
45867;SDS011;31582;45.490;7.860;2022-09-09T11:42:07;0.20;;;0.10;;
45867;SDS011;31582;45.490;7.860;2022-09-09T11:44:40;0.15;;;0.10;;
45867;SDS011;31582;45.490;7.860;2022-09-09T12:03:06;0.10;;;0.10;;
45867;SDS011;31582;45.490;7.860;2022-09-09T12:08:51;0.43;;;0.20;;
45867;SDS011;31582;45.490;7.860;2022-09-09T12:11:24;0.10;;;0.10;;
45867;SDS011;31582;45.490;7.860;2022-09-09T12:13:56;0.20;;;0.20;;
45867;SDS011;31582;45.490;7.860;2022-09-09T12:16:33;0.25;;;0.17;;
45867;SDS011;31582;45.490;7.860;2022-09-09T12:19:36;0.70;;;0.20;;
45867;SDS011;31582;45.490;7.860;2022-09-09T12:25:17;0.13;;;0.13;;
45867;SDS011;31582;45.490;7.860;2022-09-09T12:33:34;0.10;;;0.10;;
45867;SDS011;31582;45.490;7.860;2022-09-09T12:36:03;0.20;;;0.10;;
45867;SDS011;31582;45.490;7.860;2022-09-09T12:38:39;0.10;;;0.10;;
45867;SDS011;31582;45.490;7.860;2022-09-09T12:41:20;0.20;;;0.20;;
45867;SDS011;31582;45.490;7.860;2022-09-09T12:43:51;0.10;;;0.10;;
45867;SDS011;31582;45.490;7.860;2022-09-09T12:46:41;0.22;;;0.22;;
45867;SDS011;31582;45.490;7.860;2022-09-09T12:51:54;0.20;;;0.20;;
45867;SDS011;31582;45.490;7.860;2022-09-09T12:54:23;0.20;;;0.20;;
45867;SDS011;31582;45.490;7.860;2022-09-09T12:56:50;0.20;;;0.20;;
45867;SDS011;31582;45.490;7.860;2022-09-09T12:59:24;0.10;;;0.10;;
45867;SDS011;31582;45.490;7.860;2022-09-09T13:01:56;1.20;;;0.28;;
45867;SDS011;31582;45.490;7.860;2022-09-09T13:04:24;0.20;;;0.20;;
45867;SDS011;31582;45.490;7.860;2022-09-09T13:06:51;0.13;;;0.13;;
45867;SDS011;31582;45.490;7.860;2022-09-09T13:09:18;0.28;;;0.10;;
45867;SDS011;31582;45.490;7.860;2022-09-09T13:11:47;0.13;;;0.13;;
45867;SDS011;31582;45.490;7.860;2022-09-09T13:14:19;0.10;;;0.10;;
45867;SDS011;31582;45.490;7.860;2022-09-09T13:17:05;0.10;;;0.10;;
45867;SDS011;31582;45.490;7.860;2022-09-09T13:19:36;0.30;;;0.10;;
45867;SDS011;31582;45.490;7.860;2022-09-09T13:22:16;0.10;;;0.10;;
45867;SDS011;31582;45.490;7.860;2022-09-09T13:27:39;0.63;;;0.17;;
45867;SDS011;31582;45.490;7.860;2022-09-09T13:30:25;0.10;;;0.10;;
45867;SDS011;31582;45.490;7.860;2022-09-09T13:38:19;0.30;;;0.20;;
45867;SDS011;31582;45.490;7.860;2022-09-09T13:40:53;0.20;;;0.17;;
45867;SDS011;31582;45.490;7.860;2022-09-09T13:43:21;0.10;;;0.10;;
45867;SDS011;31582;45.490;7.860;2022-09-09T13:46:02;0.10;;;0.10;;
45867;SDS011;31582;45.490;7.860;2022-09-09T13:48:31;0.28;;;0.15;;
45867;SDS011;31582;45.490;7.860;2022-09-09T13:50:59;0.25;;;0.13;;
45867;SDS011;31582;45.490;7.860;2022-09-09T13:53:31;0.20;;;0.17;;
45867;SDS011;31582;45.490;7.860;2022-09-09T13:55:58;0.17;;;0.10;;
45867;SDS011;31582;45.490;7.860;2022-09-09T13:58:25;0.20;;;0.20;;
45867;SDS011;31582;45.490;7.860;2022-09-09T14:00:52;0.30;;;0.15;;
45867;SDS011;31582;45.490;7.860;2022-09-09T14:03:20;0.20;;;0.10;;
45867;SDS011;31582;45.490;7.860;2022-09-09T14:05:47;0.10;;;0.10;;
45867;SDS011;31582;45.490;7.860;2022-09-09T14:08:20;0.10;;;0.10;;
45867;SDS011;31582;45.490;7.860;2022-09-09T14:10:50;0.28;;;0.15;;
45867;SDS011;31582;45.490;7.860;2022-09-09T14:13:18;0.10;;;0.10;;
45867;SDS011;31582;45.490;7.860;2022-09-09T14:15:45;0.20;;;0.10;;
45867;SDS011;31582;45.490;7.860;2022-09-09T14:18:14;0.10;;;0.10;;
45867;SDS011;31582;45.490;7.860;2022-09-09T14:20:40;0.13;;;0.10;;
45867;SDS011;31582;45.490;7.860;2022-09-09T14:23:09;0.20;;;0.20;;
45867;SDS011;31582;45.490;7.860;2022-09-09T14:25:39;0.10;;;0.10;;
45867;SDS011;31582;45.490;7.860;2022-09-09T14:28:08;0.28;;;0.20;;
45867;SDS011;31582;45.490;7.860;2022-09-09T14:30:37;0.70;;;0.20;;
45867;SDS011;31582;45.490;7.860;2022-09-09T14:33:06;0.32;;;0.20;;
45867;SDS011;31582;45.490;7.860;2022-09-09T14:35:34;0.10;;;0.10;;
45867;SDS011;31582;45.490;7.860;2022-09-09T14:38:02;0.10;;;0.10;;
45867;SDS011;31582;45.490;7.860;2022-09-09T14:40:30;0.25;;;0.10;;
45867;SDS011;31582;45.490;7.860;2022-09-09T14:42:57;0.50;;;0.10;;
45867;SDS011;31582;45.490;7.860;2022-09-09T14:45:25;0.10;;;0.10;;
45867;SDS011;31582;45.490;7.860;2022-09-09T14:47:52;0.20;;;0.10;;
45867;SDS011;31582;45.490;7.860;2022-09-09T14:50:20;0.30;;;0.20;;
45867;SDS011;31582;45.490;7.860;2022-09-09T14:52:48;0.13;;;0.10;;
45867;SDS011;31582;45.490;7.860;2022-09-09T14:55:15;0.15;;;0.10;;
45867;SDS011;31582;45.490;7.860;2022-09-09T14:57:43;0.50;;;0.10;;
45867;SDS011;31582;45.490;7.860;2022-09-09T15:00:10;1.15;;;0.10;;
45867;SDS011;31582;45.490;7.860;2022-09-09T15:02:39;0.82;;;0.10;;
45867;SDS011;31582;45.490;7.860;2022-09-09T15:05:06;0.10;;;0.10;;
45867;SDS011;31582;45.490;7.860;2022-09-09T15:07:33;0.20;;;0.10;;
45867;SDS011;31582;45.490;7.860;2022-09-09T15:10:00;0.10;;;0.10;;
45867;SDS011;31582;45.490;7.860;2022-09-09T15:12:28;0.20;;;0.10;;
45867;SDS011;31582;45.490;7.860;2022-09-09T15:14:55;0.20;;;0.10;;
45867;SDS011;31582;45.490;7.860;2022-09-09T15:17:24;0.22;;;0.10;;
45867;SDS011;31582;45.490;7.860;2022-09-09T15:19:53;0.30;;;0.20;;
45867;SDS011;31582;45.490;7.860;2022-09-09T15:22:21;0.13;;;0.10;;
45867;SDS011;31582;45.490;7.860;2022-09-09T15:24:48;0.10;;;0.10;;
45867;SDS011;31582;45.490;7.860;2022-09-09T15:27:15;0.10;;;0.10;;
45867;SDS011;31582;45.490;7.860;2022-09-09T15:29:42;0.10;;;0.10;;
45867;SDS011;31582;45.490;7.860;2022-09-09T15:32:10;0.30;;;0.10;;
45867;SDS011;31582;45.490;7.860;2022-09-09T15:34:37;0.15;;;0.10;;
45867;SDS011;31582;45.490;7.860;2022-09-09T15:37:04;0.13;;;0.10;;
45867;SDS011;31582;45.490;7.860;2022-09-09T15:39:32;0.10;;;0.10;;
45867;SDS011;31582;45.490;7.860;2022-09-09T15:42:04;0.10;;;0.10;;
45867;SDS011;31582;45.490;7.860;2022-09-09T15:44:37;0.35;;;0.28;;
45867;SDS011;31582;45.490;7.860;2022-09-09T15:47:05;0.52;;;0.10;;
45867;SDS011;31582;45.490;7.860;2022-09-09T15:49:32;0.10;;;0.10;;
45867;SDS011;31582;45.490;7.860;2022-09-09T15:51:59;0.10;;;0.10;;
45867;SDS011;31582;45.490;7.860;2022-09-09T15:54:33;0.20;;;0.20;;
45867;SDS011;31582;45.490;7.860;2022-09-09T15:57:05;0.95;;;0.10;;
45867;SDS011;31582;45.490;7.860;2022-09-09T15:59:34;0.20;;;0.10;;
45867;SDS011;31582;45.490;7.860;2022-09-09T16:02:01;0.10;;;0.10;;
45867;SDS011;31582;45.490;7.860;2022-09-09T16:04:28;0.10;;;0.10;;
45867;SDS011;31582;45.490;7.860;2022-09-09T16:06:57;0.10;;;0.10;;
45867;SDS011;31582;45.490;7.860;2022-09-09T16:09:26;0.20;;;0.20;;
45867;SDS011;31582;45.490;7.860;2022-09-09T16:11:57;0.20;;;0.20;;
45867;SDS011;31582;45.490;7.860;2022-09-09T16:14:28;0.10;;;0.10;;
45867;SDS011;31582;45.490;7.860;2022-09-09T16:17:00;0.10;;;0.10;;
45867;SDS011;31582;45.490;7.860;2022-09-09T16:19:27;0.10;;;0.10;;
45867;SDS011;31582;45.490;7.860;2022-09-09T16:21:54;0.17;;;0.10;;
45867;SDS011;31582;45.490;7.860;2022-09-09T16:24:21;0.17;;;0.10;;
45867;SDS011;31582;45.490;7.860;2022-09-09T16:26:49;0.10;;;0.10;;
45867;SDS011;31582;45.490;7.860;2022-09-09T16:29:18;0.20;;;0.10;;
45867;SDS011;31582;45.490;7.860;2022-09-09T16:31:45;0.10;;;0.10;;
45867;SDS011;31582;45.490;7.860;2022-09-09T16:34:13;0.10;;;0.10;;
45867;SDS011;31582;45.490;7.860;2022-09-09T16:36:42;0.10;;;0.10;;
45867;SDS011;31582;45.490;7.860;2022-09-09T16:39:11;0.10;;;0.10;;
45867;SDS011;31582;45.490;7.860;2022-09-09T16:41:40;0.10;;;0.10;;
45867;SDS011;31582;45.490;7.860;2022-09-09T16:44:11;0.10;;;0.10;;
45867;SDS011;31582;45.490;7.860;2022-09-09T16:46:39;2.55;;;0.10;;
45867;SDS011;31582;45.490;7.860;2022-09-09T16:49:08;0.20;;;0.10;;
